Brockway, Michigan
Current Conditions -  °F | °C
As of 4:37 PM on Wednesday 26 Nov 2014 (Local Time) from KPHN Reporting Station
Overcast Overcast  
Wind Chill: 27°   Ceiling: 4300
Heat Index: 32°   Visibility: 10mi
Dew Point: 25°   Wind: 5mph
Humidity: 75%   Direction: 350°N
Pressure: 30.1"   Gusts: NA
Location:  43.127°N, 82.8328°W
Report Text: KPHN 262137Z AUTO 35004KT 10SM OVC043 00/M04 A3010 RMK AO2
Loading
Personal Weather Stations






























Interactive Weather Map New forecast layout! Learn more

10-Day Weather Forecast

Advertisements
Track Severe Weather on mobile